Teretulemast minu uuele ilmaprognooside lehele
Praegu on leht veel arendamise järgus: tõlked, linnade lisamine, menüüde korrastamine jne.
Endine leht vt. menüüs! / Andke teada probleemidest(nt. koha valik - kas töötab jne.) menüüs: Muu kraam - Saada kiri.



There is a communication problem. Go directly to the Meteoalarm site : www.meteoalarm.eu and check the Weather-warnings there .

/home/edgarnuum/domains/hotserv.eq.ee/public_html/nautical/weatherpro/metar/metarDisplay.php

Nearby METAR Reports

   
EEKE - Kuressaare, Estonia
Distance from station: SE 3 km
Uuendatud: 25-02-2024 16:50
Few Clouds  
Few Clouds  
   Tuul: SSE 3.1 m/s
Tuul: SSE 3.1 m/s
Temperatuur: 2°C
Wind Chill: -1°C
Kastepunkt: 1°C
Niiskus: 93%
Baromeeter: 1012 hPa
Pilvisus: Few Clouds
Nähtavus: More than 10 km
Cloud details: Few Clouds 975.4 m
EEKE 251450Z 15006KT 9999 FEW032 02/01 Q1012
EEKA - Kardla, Estonia
Distance from station: NNE 84 km
Uuendatud: 25-02-2024 16:50
Clear  
Clear  
   Tuul: SSE 3.1 m/s
Tuul: SSE 3.1 m/s
Temperatuur: 3°C
Wind Chill: 0°C
Kastepunkt: 1°C
Niiskus: 87%
Baromeeter: 1012 hPa
Nähtavus: More than 10 km
Cloud details: Clear m
EEKA 251450Z 16006KT 140V200 CAVOK 03/01 Q1012
EEEI - Harjumaa Amari, Estonia
Distance from station: NE 151 km
Uuendatud: 25-02-2024 16:50
Clear  
Clear  
   Tuul: South 3.6 m/s
Tuul: South 3.6 m/s
Temperatuur: 6°C
Wind Chill: 3°C
Kastepunkt: 3°C
Niiskus: 81%
Baromeeter: 1012 hPa
Nähtavus: More than 10 km
Cloud details: Clear m
EEEI 251450Z 17007KT CAVOK 06/03 Q1012 NOSIG
EETN - Tallinn L. Meri, Estonia
Distance from station: NE 187 km
Uuendatud: 25-02-2024 16:50
Clear  
Clear  
   Tuul: SSE 3.6 m/s
Tuul: SSE 3.6 m/s
Temperatuur: 5°C
Wind Chill: 2°C
Kastepunkt: 3°C
Niiskus: 87%
Baromeeter: 1013 hPa
Nähtavus: More than 10 km
Cloud details: Clear m
EETN 251450Z 16007KT CAVOK 05/03 Q1013 NOSIG
EETU - Tartu, Estonia
Distance from station: E 245 km
Uuendatud: 25-02-2024 16:50
Clear  
Clear  
   Tuul: ESE 2.6 m/s
Tuul: ESE 2.6 m/s
Temperatuur: 5°C
Wind Chill: 3°C
Kastepunkt: 1°C
Niiskus: 76%
Baromeeter: 1015 hPa
Nähtavus: More than 10 km
Cloud details: Clear m
EETU 251450Z 12005KT CAVOK 05/01 Q1015
 

Script developed by  Saratoga-weather.org Adapted for the template by  Weerstation Leuven